Aviation Digital Data Service (ADDS)

Output produced by TAFs form (1129 UTC 19 January 2018)
found at http://www.aviationweather.gov/adds/tafs/
 
RJOT 191100Z 15007KT 9999 FEW025 SCT050 05/03 Q1018
TAF RJOT 191105Z 1912/2018 15006KT 8000 FEW020 BKN040 
     BECMG 2000/2003 28008KT 
     BECMG 2009/2012 15006KT